Time;durP1;ratioP1;P1;durP2;ratioP2;P2;SDS_P1;SDS_P2;PMS_P1;PMS_P2;Temp;Humidity;BMP_temperature;BMP_pressure;BME280_temperature;BME280_humidity;BME280_pressure;Samples;Min_cycle;Max_cycle;Signal;HPM_P1;HPM_P2
2022/08/23 00:00:53;;;;;;;;;;;;;;;;;;5049842;28;20002;-83
2022/08/23 00:03:18;;;;;;;;;;;;;;;;;;5042907;28;20283;-84
2022/08/23 00:05:43;;;;;;;;;;;;;;;;;;5051468;28;19999;-82
2022/08/23 00:08:09;;;;;;;;;;;;;;;;;;5050062;28;19909;-82
2022/08/23 00:10:34;;;;;;;;;;;;;;;;;;5050200;28;19915;-82
2022/08/23 00:12:59;;;;;;;;;;;;;;;;;;5044176;28;20283;-84
2022/08/23 00:15:24;;;;;;;;;;;;;;;;;;5038514;28;19963;-84
2022/08/23 00:17:49;;;;;;;;;;;;;;;;;;5035691;28;19913;-83
2022/08/23 00:20:14;;;;;;;;;;;;;;;;;;5035385;28;19960;-82
2022/08/23 00:22:39;;;;;;;;;;;;;;;;;;5041884;28;19920;-84
2022/08/23 00:25:05;;;;;;;;;;;;;;;;;;5038827;28;19916;-84
2022/08/23 00:27:30;;;;;;;;;;;;;;;;;;5036474;28;19911;-84
2022/08/23 00:29:55;;;;;;;;;;;;;;;;;;5040023;28;19916;-83
2022/08/23 00:32:21;;;;;;;;;;;;;;;;;;5038482;28;19912;-83
2022/08/23 00:34:46;;;;;;;;;;;;;;;;;;5035005;28;19999;-83
2022/08/23 00:37:11;;;;;;;;;;;;;;;;;;5044710;28;19917;-84
2022/08/23 00:39:36;;;;;;;;;;;;;;;;;;5040082;28;19916;-84
2022/08/23 00:42:01;;;;;;;;;;;;;;;;;;5037699;28;19904;-82
2022/08/23 00:47:39;;;;;;;;;;;;;;;;;;5038366;28;19916;-84
2022/08/23 00:50:04;;;;;;;;;;;;;;;;;;5040570;28;19904;-83
2022/08/23 00:52:29;;;;;;;;;;;;;;;;;;5041339;28;19928;-83
2022/08/23 00:54:55;;;;;;;;;;;;;;;;;;5049121;28;20053;-83
2022/08/23 00:57:20;;;;;;;;;;;;;;;;;;5038072;28;20422;-83
2022/08/23 00:59:45;;;;;;;;;;;;;;;;;;5048259;28;20298;-83
2022/08/23 01:02:10;;;;;;;;;;;;;;;;;;5039843;28;19930;-83
2022/08/23 01:04:35;;;;;;;;;;;;;;;;;;5039119;28;19916;-83
2022/08/23 01:07:00;;;;;;;;;;;;;;;;;;5037085;28;19996;-84
2022/08/23 01:09:25;;;;;;;;;;;;;;;;;;5039214;28;19980;-84
2022/08/23 01:11:51;;;;;;;;;;;;;;;;;;5042883;28;19909;-83
2022/08/23 01:14:16;;;;;;;;;;;;;;;;;;5052861;28;19913;-83
2022/08/23 01:16:42;;;;;;;;;;;;;;;;;;5049872;28;19904;-84
2022/08/23 01:19:07;;;;;;;;;;;;;;;;;;5043268;28;19957;-84
2022/08/23 01:21:32;;;;;;;;;;;;;;;;;;5041421;28;20379;-84
2022/08/23 01:23:57;;;;;;;;;;;;;;;;;;5042027;28;19920;-83
2022/08/23 01:26:23;;;;;;;;;;;;;;;;;;5044208;28;19962;-83
2022/08/23 01:28:48;;;;;;;;;;;;;;;;;;5048537;28;20284;-83
2022/08/23 01:31:14;;;;;;;;;;;;;;;;;;5049310;28;19908;-81
2022/08/23 01:33:39;;;;;;;;;;;;;;;;;;5050301;28;19959;-83
2022/08/23 01:36:04;;;;;;;;;;;;;;;;;;5050606;28;19916;-82
2022/08/23 01:38:29;;;;;;;;;;;;;;;;;;5047920;28;20356;-83
2022/08/23 01:40:54;;;;;;;;;;;;;;;;;;5051200;28;19909;-83
2022/08/23 01:43:20;;;;;;;;;;;;;;;;;;5038235;28;19916;-83
2022/08/23 01:45:45;;;;;;;;;;;;;;;;;;5043112;28;20253;-82
2022/08/23 01:48:10;;;;;;;;;;;;;;;;;;5056220;28;19909;-81
2022/08/23 01:50:35;;;;;;;;;;;;;;;;;;5050253;28;19909;-82
2022/08/23 01:53:00;;;;;;;;;;;;;;;;;;5044963;28;19917;-84
2022/08/23 01:55:25;;;;;;;;;;;;;;;;;;5050231;28;19989;-83
2022/08/23 01:57:51;;;;;;;;;;;;;;;;;;5038094;28;19952;-82
2022/08/23 02:00:16;;;;;;;;;;;;;;;;;;5039004;28;19916;-81
2022/08/23 02:02:41;;;;;;;;;;;;;;;;;;5046319;28;20272;-83
2022/08/23 02:05:07;;;;;;;;;;;;;;;;;;5053532;28;20311;-83
2022/08/23 02:07:32;;;;;;;;;;;;;;;;;;5045506;28;20337;-82
2022/08/23 02:09:57;;;;;;;;;;;;;;;;;;5041989;28;19916;-82
2022/08/23 02:12:22;;;;;;;;;;;;;;;;;;5051509;28;19919;-83
2022/08/23 02:14:47;;;;;;;;;;;;;;;;;;5052511;28;19927;-83
2022/08/23 02:17:13;;;;;;;;;;;;;;;;;;5048176;28;19917;-82
2022/08/23 02:19:38;;;;;;;;;;;;;;;;;;5037764;28;19932;-83
2022/08/23 02:22:04;;;;;;;;;;;;;;;;;;5039789;28;19905;-82
2022/08/23 02:24:30;;;;;;;;;;;;;;;;;;5040360;28;20002;-83
2022/08/23 02:26:55;;;;;;;;;;;;;;;;;;5040457;28;19952;-83
2022/08/23 02:29:20;;;;;;;;;;;;;;;;;;5041058;28;20351;-82
2022/08/23 02:31:45;;;;;;;;;;;;;;;;;;5047660;28;20374;-82
2022/08/23 02:34:10;;;;;;;;;;;;;;;;;;5041951;28;20399;-83
2022/08/23 02:36:36;;;;;;;;;;;;;;;;;;5053193;28;19908;-82
2022/08/23 02:39:01;;;;;;;;;;;;;;;;;;5047034;28;19988;-83
2022/08/23 02:41:27;;;;;;;;;;;;;;;;;;5042245;28;20196;-83
2022/08/23 02:43:52;;;;;;;;;;;;;;;;;;5045400;28;19909;-83
2022/08/23 02:46:17;;;;;;;;;;;;;;;;;;5038731;28;19909;-82
2022/08/23 02:48:42;;;;;;;;;;;;;;;;;;5040705;28;19909;-82
2022/08/23 02:51:07;;;;;;;;;;;;;;;;;;5046850;28;19916;-83
2022/08/23 02:53:33;;;;;;;;;;;;;;;;;;5042301;28;20355;-83
2022/08/23 02:55:58;;;;;;;;;;;;;;;;;;5041814;28;19909;-82
2022/08/23 02:58:23;;;;;;;;;;;;;;;;;;5049285;28;20399;-83
2022/08/23 03:00:48;;;;;;;;;;;;;;;;;;5050911;28;20330;-82
2022/08/23 03:03:13;;;;;;;;;;;;;;;;;;5047250;28;19949;-82
2022/08/23 03:05:38;;;;;;;;;;;;;;;;;;5041450;28;20287;-82
2022/08/23 03:08:04;;;;;;;;;;;;;;;;;;5042870;28;20402;-83
2022/08/23 03:10:29;;;;;;;;;;;;;;;;;;5049974;28;20280;-82
2022/08/23 03:12:55;;;;;;;;;;;;;;;;;;5045498;28;19971;-83
2022/08/23 03:15:20;;;;;;;;;;;;;;;;;;5044227;28;20004;-83
2022/08/23 03:17:45;;;;;;;;;;;;;;;;;;5043011;28;19935;-83
2022/08/23 03:20:10;;;;;;;;;;;;;;;;;;5053070;28;19916;-83
2022/08/23 03:22:36;;;;;;;;;;;;;;;;;;5041735;28;19917;-83
2022/08/23 03:25:01;;;;;;;;;;;;;;;;;;5047852;28;19915;-83
2022/08/23 03:27:26;;;;;;;;;;;;;;;;;;5041292;28;19947;-82
2022/08/23 03:29:52;;;;;;;;;;;;;;;;;;5036751;28;20284;-82
2022/08/23 03:32:17;;;;;;;;;;;;;;;;;;5045240;28;19917;-81
2022/08/23 03:34:42;;;;;;;;;;;;;;;;;;5042054;28;20272;-83
2022/08/23 03:37:07;;;;;;;;;;;;;;;;;;5045355;28;20287;-84
2022/08/23 03:39:32;;;;;;;;;;;;;;;;;;5039402;28;19952;-82
2022/08/23 03:41:57;;;;;;;;;;;;;;;;;;5050591;28;19908;-81
2022/08/23 03:44:23;;;;;;;;;;;;;;;;;;5046166;28;19916;-83
2022/08/23 03:46:48;;;;;;;;;;;;;;;;;;5052941;28;20399;-82
2022/08/23 03:49:14;;;;;;;;;;;;;;;;;;5034033;28;20311;-83
2022/08/23 03:51:39;;;;;;;;;;;;;;;;;;5044208;28;19909;-82
2022/08/23 03:54:04;;;;;;;;;;;;;;;;;;5046599;28;19923;-83
2022/08/23 03:56:29;;;;;;;;;;;;;;;;;;5043179;28;19963;-82
2022/08/23 03:58:54;;;;;;;;;;;;;;;;;;5044501;28;19908;-83
2022/08/23 04:01:19;;;;;;;;;;;;;;;;;;5037005;28;19952;-82
2022/08/23 04:03:46;;;;;;;;;;;;;;;;;;5036516;28;19915;-83
2022/08/23 04:06:11;;;;;;;;;;;;;;;;;;5040731;28;19913;-83
2022/08/23 04:08:36;;;;;;;;;;;;;;;;;;5040650;28;19909;-83
2022/08/23 04:11:01;;;;;;;;;;;;;;;;;;5044523;28;20016;-83
2022/08/23 04:13:28;;;;;;;;;;;;;;;;;;5045594;28;19917;-83
2022/08/23 04:15:53;;;;;;;;;;;;;;;;;;5043444;28;19909;-83
2022/08/23 04:18:19;;;;;;;;;;;;;;;;;;5035759;28;20419;-82
2022/08/23 04:20:45;;;;;;;;;;;;;;;;;;5052915;28;19971;-81
2022/08/23 04:23:10;;;;;;;;;;;;;;;;;;5042605;28;19917;-83
2022/08/23 04:25:35;;;;;;;;;;;;;;;;;;5036561;28;19905;-81
2022/08/23 04:28:00;;;;;;;;;;;;;;;;;;5039053;28;20011;-83
2022/08/23 04:30:25;;;;;;;;;;;;;;;;;;5042664;28;20261;-83
2022/08/23 04:32:50;;;;;;;;;;;;;;;;;;5035436;28;20007;-83
2022/08/23 04:35:16;;;;;;;;;;;;;;;;;;5042340;28;19912;-83
2022/08/23 04:37:41;;;;;;;;;;;;;;;;;;5041265;28;19909;-83
2022/08/23 04:42:49;;;;;;;;;;;;;;;;;;5034432;28;19963;-83
2022/08/23 04:45:15;;;;;;;;;;;;;;;;;;5038300;28;19913;-83
2022/08/23 04:47:43;;;;;;;;;;;;;;;;;;5035192;28;19983;-83
2022/08/23 04:50:08;;;;;;;;;;;;;;;;;;5046869;28;20287;-83
2022/08/23 04:52:33;;;;;;;;;;;;;;;;;;5048313;28;19913;-83
2022/08/23 04:54:58;;;;;;;;;;;;;;;;;;5036971;28;19909;-82
2022/08/23 04:57:24;;;;;;;;;;;;;;;;;;5042058;28;19909;-82
2022/08/23 04:59:49;;;;;;;;;;;;;;;;;;5040355;28;20387;-82
2022/08/23 05:02:14;;;;;;;;;;;;;;;;;;5035958;28;20363;-83
2022/08/23 05:04:40;;;;;;;;;;;;;;;;;;5037714;28;19931;-83
2022/08/23 05:07:05;;;;;;;;;;;;;;;;;;5042727;28;20315;-83
2022/08/23 05:09:30;;;;;;;;;;;;;;;;;;5047491;28;20233;-82
2022/08/23 05:11:55;;;;;;;;;;;;;;;;;;5049278;28;20406;-81
2022/08/23 05:14:20;;;;;;;;;;;;;;;;;;5047394;28;19913;-81
2022/08/23 05:16:45;;;;;;;;;;;;;;;;;;5038510;28;19905;-82
2022/08/23 05:19:11;;;;;;;;;;;;;;;;;;5039622;28;19909;-83
2022/08/23 05:21:36;;;;;;;;;;;;;;;;;;5040066;28;19909;-83
2022/08/23 05:24:01;;;;;;;;;;;;;;;;;;5037849;28;19916;-81
2022/08/23 05:26:26;;;;;;;;;;;;;;;;;;5034717;28;19916;-82
2022/08/23 05:28:51;;;;;;;;;;;;;;;;;;5037950;28;19997;-81
2022/08/23 05:31:17;;;;;;;;;;;;;;;;;;5036095;28;20262;-83
2022/08/23 05:33:42;;;;;;;;;;;;;;;;;;5045817;28;20386;-82
2022/08/23 05:36:07;;;;;;;;;;;;;;;;;;5034347;28;19937;-83
2022/08/23 05:38:33;;;;;;;;;;;;;;;;;;5035301;28;20345;-82
2022/08/23 05:41:00;;;;;;;;;;;;;;;;;;5034649;28;20006;-81
2022/08/23 05:43:25;;;;;;;;;;;;;;;;;;5038372;28;20365;-82
2022/08/23 05:45:51;;;;;;;;;;;;;;;;;;5039911;28;20375;-82
2022/08/23 05:48:16;;;;;;;;;;;;;;;;;;5034599;28;19909;-82
2022/08/23 05:50:41;;;;;;;;;;;;;;;;;;5043768;28;19908;-82
2022/08/23 05:53:06;;;;;;;;;;;;;;;;;;5044472;28;19917;-82
2022/08/23 05:55:31;;;;;;;;;;;;;;;;;;5036185;28;19959;-82
2022/08/23 05:57:56;;;;;;;;;;;;;;;;;;5052390;28;19932;-83
2022/08/23 06:00:22;;;;;;;;;;;;;;;;;;5044547;28;20622;-82
2022/08/23 06:02:47;;;;;;;;;;;;;;;;;;5033130;28;19908;-82
2022/08/23 06:05:13;;;;;;;;;;;;;;;;;;5039819;28;19921;-82
2022/08/23 06:07:38;;;;;;;;;;;;;;;;;;5038134;28;20282;-83
2022/08/23 06:10:03;;;;;;;;;;;;;;;;;;5037007;28;19909;-83
2022/08/23 06:12:28;;;;;;;;;;;;;;;;;;5038061;28;19920;-83
2022/08/23 06:14:53;;;;;;;;;;;;;;;;;;5040292;28;19948;-83
2022/08/23 06:17:18;;;;;;;;;;;;;;;;;;5043783;28;19962;-81
2022/08/23 06:19:43;;;;;;;;;;;;;;;;;;5040152;28;19909;-83
2022/08/23 06:22:09;;;;;;;;;;;;;;;;;;5040925;28;19963;-82
2022/08/23 06:24:34;;;;;;;;;;;;;;;;;;5039997;28;20319;-83
2022/08/23 06:26:59;;;;;;;;;;;;;;;;;;5044715;28;20291;-82
2022/08/23 06:29:24;;;;;;;;;;;;;;;;;;5050222;28;19916;-83
2022/08/23 06:31:49;;;;;;;;;;;;;;;;;;5037674;28;19964;-83
2022/08/23 06:34:15;;;;;;;;;;;;;;;;;;5040606;28;19978;-83
2022/08/23 06:36:41;;;;;;;;;;;;;;;;;;5053063;28;19912;-82
2022/08/23 06:39:06;;;;;;;;;;;;;;;;;;5041494;28;19935;-83
2022/08/23 06:41:31;;;;;;;;;;;;;;;;;;5039133;28;19962;-83
2022/08/23 06:43:56;;;;;;;;;;;;;;;;;;5041761;28;19912;-84
2022/08/23 06:46:21;;;;;;;;;;;;;;;;;;5039283;28;20237;-82
2022/08/23 06:48:47;;;;;;;;;;;;;;;;;;5041433;28;20280;-82
2022/08/23 06:51:12;;;;;;;;;;;;;;;;;;5052085;28;19905;-83
2022/08/23 06:53:37;;;;;;;;;;;;;;;;;;5053121;28;19913;-83
2022/08/23 06:56:02;;;;;;;;;;;;;;;;;;5046159;28;19909;-83
2022/08/23 06:58:27;;;;;;;;;;;;;;;;;;5047602;28;19954;-83
2022/08/23 07:00:53;;;;;;;;;;;;;;;;;;5041105;28;19916;-84
2022/08/23 07:03:18;;;;;;;;;;;;;;;;;;5044446;28;20019;-82
2022/08/23 07:05:43;;;;;;;;;;;;;;;;;;5044896;28;19905;-83
2022/08/23 07:08:08;;;;;;;;;;;;;;;;;;5043775;28;19999;-83
2022/08/23 07:10:33;;;;;;;;;;;;;;;;;;5048011;28;19916;-84
2022/08/23 07:12:59;;;;;;;;;;;;;;;;;;5049092;28;19917;-83
2022/08/23 07:15:24;;;;;;;;;;;;;;;;;;5048096;28;19909;-84
2022/08/23 07:17:49;;;;;;;;;;;;;;;;;;5039871;28;19915;-84
2022/08/23 07:20:14;;;;;;;;;;;;;;;;;;5053806;28;20352;-83
2022/08/23 07:22:39;;;;;;;;;;;;;;;;;;5046424;28;20442;-84
2022/08/23 07:25:05;;;;;;;;;;;;;;;;;;5038089;28;19999;-83
2022/08/23 07:27:30;;;;;;;;;;;;;;;;;;5037589;28;19983;-82
2022/08/23 07:29:55;;;;;;;;;;;;;;;;;;5035656;28;20349;-83
2022/08/23 07:32:20;;;;;;;;;;;;;;;;;;5036634;28;19917;-84
2022/08/23 07:34:45;;;;;;;;;;;;;;;;;;5036535;28;19916;-81
2022/08/23 07:37:11;;;;;;;;;;;;;;;;;;5041270;28;19912;-83
2022/08/23 07:39:36;;;;;;;;;;;;;;;;;;5044057;28;19987;-83
2022/08/23 07:42:03;;;;;;;;;;;;;;;;;;5043274;28;19905;-83
2022/08/23 07:44:28;;;;;;;;;;;;;;;;;;5043941;28;19912;-83
2022/08/23 07:46:54;;;;;;;;;;;;;;;;;;5043370;28;19962;-81
2022/08/23 07:49:19;;;;;;;;;;;;;;;;;;5045797;28;20390;-83
2022/08/23 07:51:44;;;;;;;;;;;;;;;;;;5043740;28;20277;-83
2022/08/23 07:54:09;;;;;;;;;;;;;;;;;;5042310;28;20538;-84
2022/08/23 07:56:34;;;;;;;;;;;;;;;;;;5039279;28;20004;-82
2022/08/23 07:59:00;;;;;;;;;;;;;;;;;;5043364;28;19909;-84
2022/08/23 08:01:25;;;;;;;;;;;;;;;;;;5025886;28;20372;-84
2022/08/23 08:03:52;;;;;;;;;;;;;;;;;;5033343;28;19928;-83
2022/08/23 08:06:17;;;;;;;;;;;;;;;;;;5039525;28;19963;-83
2022/08/23 08:08:43;;;;;;;;;;;;;;;;;;5038066;28;19913;-85
2022/08/23 08:11:08;;;;;;;;;;;;;;;;;;5039359;28;19923;-83
2022/08/23 08:13:33;;;;;;;;;;;;;;;;;;5034127;28;19917;-84
2022/08/23 08:15:58;;;;;;;;;;;;;;;;;;5045299;28;19908;-84
2022/08/23 08:18:24;;;;;;;;;;;;;;;;;;5037307;28;20241;-82
2022/08/23 08:20:49;;;;;;;;;;;;;;;;;;5046503;28;19979;-84
2022/08/23 08:23:14;;;;;;;;;;;;;;;;;;5038963;28;19921;-84
2022/08/23 08:25:40;;;;;;;;;;;;;;;;;;5042034;28;20000;-84
2022/08/23 08:28:05;;;;;;;;;;;;;;;;;;5045182;28;19909;-84
2022/08/23 08:30:30;;;;;;;;;;;;;;;;;;5019354;28;19930;-83
2022/08/23 08:32:55;;;;;;;;;;;;;;;;;;5030535;28;19985;-84
2022/08/23 08:35:20;;;;;;;;;;;;;;;;;;5036464;28;19904;-85
2022/08/23 08:37:45;;;;;;;;;;;;;;;;;;5035933;28;19908;-84
2022/08/23 08:40:11;;;;;;;;;;;;;;;;;;5031836;28;19912;-86
2022/08/23 08:42:36;;;;;;;;;;;;;;;;;;5038002;28;19912;-84
2022/08/23 08:45:01;;;;;;;;;;;;;;;;;;5037315;28;19909;-83
2022/08/23 08:47:26;;;;;;;;;;;;;;;;;;5035864;28;19909;-84
2022/08/23 08:49:51;;;;;;;;;;;;;;;;;;5040841;28;19925;-86
2022/08/23 08:52:17;;;;;;;;;;;;;;;;;;5036424;28;19916;-86
2022/08/23 08:54:42;;;;;;;;;;;;;;;;;;5037945;28;20395;-85
2022/08/23 08:57:07;;;;;;;;;;;;;;;;;;5040671;28;19908;-85
2022/08/23 08:59:33;;;;;;;;;;;;;;;;;;5039944;28;19913;-84
2022/08/23 09:01:58;;;;;;;;;;;;;;;;;;5042194;28;20253;-84
2022/08/23 09:04:23;;;;;;;;;;;;;;;;;;5037219;28;19909;-85
2022/08/23 09:06:48;;;;;;;;;;;;;;;;;;5045992;28;19962;-85
2022/08/23 09:09:13;;;;;;;;;;;;;;;;;;5039341;28;19905;-85
2022/08/23 09:11:38;;;;;;;;;;;;;;;;;;5034479;28;19961;-84
2022/08/23 09:14:04;;;;;;;;;;;;;;;;;;5038009;28;20332;-85
2022/08/23 09:16:29;;;;;;;;;;;;;;;;;;5046304;28;19908;-86
2022/08/23 09:18:54;;;;;;;;;;;;;;;;;;5043486;28;19905;-85
2022/08/23 09:21:19;;;;;;;;;;;;;;;;;;5044496;28;19909;-86
2022/08/23 09:23:44;;;;;;;;;;;;;;;;;;5047432;28;20375;-86
2022/08/23 09:26:09;;;;;;;;;;;;;;;;;;5042883;28;19905;-85
2022/08/23 09:28:35;;;;;;;;;;;;;;;;;;5024228;28;19909;-85
2022/08/23 09:31:00;;;;;;;;;;;;;;;;;;5039821;28;20013;-85
2022/08/23 09:33:26;;;;;;;;;;;;;;;;;;5036642;28;19998;-85
2022/08/23 09:35:51;;;;;;;;;;;;;;;;;;5035943;28;19912;-85
2022/08/23 09:38:18;;;;;;;;;;;;;;;;;;5033892;28;20000;-83
2022/08/23 09:40:43;;;;;;;;;;;;;;;;;;5041711;28;19991;-84
2022/08/23 09:43:09;;;;;;;;;;;;;;;;;;5036863;28;20093;-80
2022/08/23 09:45:34;;;;;;;;;;;;;;;;;;5031444;28;20276;-80
2022/08/23 09:47:59;;;;;;;;;;;;;;;;;;5042355;28;19975;-80
2022/08/23 09:50:25;;;;;;;;;;;;;;;;;;5043325;28;19939;-81
2022/08/23 09:52:50;;;;;;;;;;;;;;;;;;5034176;28;19967;-85
2022/08/23 09:55:15;;;;;;;;;;;;;;;;;;5045598;28;20242;-85
2022/08/23 09:57:40;;;;;;;;;;;;;;;;;;5035700;28;20273;-78
2022/08/23 10:00:05;;;;;;;;;;;;;;;;;;5048339;28;19951;-78
2022/08/23 10:02:31;;;;;;;;;;;;;;;;;;5044417;28;19920;-76
2022/08/23 10:04:56;;;;;;;;;;;;;;;;;;5050817;28;20280;-76
2022/08/23 10:07:21;;;;;;;;;;;;;;;;;;5048341;28;20420;-76
2022/08/23 10:09:46;;;;;;;;;;;;;;;;;;5046378;28;19909;-76
2022/08/23 10:12:11;;;;;;;;;;;;;;;;;;5047422;28;19932;-76
2022/08/23 10:14:36;;;;;;;;;;;;;;;;;;5047374;28;19909;-76
2022/08/23 10:17:01;;;;;;;;;;;;;;;;;;5045169;28;19909;-76
2022/08/23 10:19:27;;;;;;;;;;;;;;;;;;5051673;28;20292;-76
2022/08/23 10:21:52;;;;;;;;;;;;;;;;;;5050327;28;19908;-78
2022/08/23 10:24:17;;;;;;;;;;;;;;;;;;5045099;28;20007;-80
2022/08/23 10:26:42;;;;;;;;;;;;;;;;;;5050934;28;19916;-81
2022/08/23 10:31:51;;;;;;;;;;;;;;;;;;5038670;28;19920;-79
2022/08/23 10:34:16;;;;;;;;;;;;;;;;;;5047036;28;19979;-80
2022/08/23 10:36:42;;;;;;;;;;;;;;;;;;5047234;28;19904;-81
2022/08/23 10:39:07;;;;;;;;;;;;;;;;;;5025689;28;19909;-81
2022/08/23 10:41:32;;;;;;;;;;;;;;;;;;5035113;28;20011;-81
2022/08/23 10:43:57;;;;;;;;;;;;;;;;;;5038055;28;19978;-81
2022/08/23 10:46:22;;;;;;;;;;;;;;;;;;5036581;28;19948;-80
2022/08/23 10:48:48;;;;;;;;;;;;;;;;;;5033304;28;20352;-80
2022/08/23 10:51:13;;;;;;;;;;;;;;;;;;5039710;28;19927;-81
2022/08/23 10:53:44;;;;;;;;;;;;;;;;;;5045905;28;20368;-81
2022/08/23 10:56:15;;;;;;;;;;;;;;;;;;5050699;28;20328;-81
2022/08/23 10:58:40;;;;;;;;;;;;;;;;;;5037998;28;19909;-81
2022/08/23 11:01:05;;;;;;;;;;;;;;;;;;5047766;28;20364;-81
2022/08/23 11:03:30;;;;;;;;;;;;;;;;;;5042102;28;20000;-80
2022/08/23 11:05:55;;;;;;;;;;;;;;;;;;5044779;28;19901;-81
2022/08/23 11:08:20;;;;;;;;;;;;;;;;;;5043538;28;19913;-81
2022/08/23 11:10:47;;;;;;;;;;;;;;;;;;5044998;28;20352;-82
2022/08/23 11:13:12;;;;;;;;;;;;;;;;;;5049088;28;19924;-81
2022/08/23 11:15:37;;;;;;;;;;;;;;;;;;5033661;28;19940;-81
2022/08/23 11:18:02;;;;;;;;;;;;;;;;;;5044603;28;19931;-81
2022/08/23 11:20:27;;;;;;;;;;;;;;;;;;5049158;28;20411;-82
2022/08/23 11:22:52;;;;;;;;;;;;;;;;;;5050933;28;20373;-82
2022/08/23 11:25:18;;;;;;;;;;;;;;;;;;5055054;28;19905;-82
2022/08/23 11:27:43;;;;;;;;;;;;;;;;;;5051104;28;19938;-81
2022/08/23 11:30:08;;;;;;;;;;;;;;;;;;5051940;28;19987;-80
2022/08/23 11:32:33;;;;;;;;;;;;;;;;;;5049241;28;19909;-81
2022/08/23 11:34:58;;;;;;;;;;;;;;;;;;5051944;28;19905;-80
2022/08/23 11:37:25;;;;;;;;;;;;;;;;;;5036143;28;19940;-82
2022/08/23 11:39:50;;;;;;;;;;;;;;;;;;5044550;28;19905;-81
2022/08/23 11:42:16;;;;;;;;;;;;;;;;;;5046911;28;20311;-81
2022/08/23 11:44:41;;;;;;;;;;;;;;;;;;5038509;28;19909;-81
2022/08/23 11:47:07;;;;;;;;;;;;;;;;;;5041490;28;19905;-81
2022/08/23 11:49:32;;;;;;;;;;;;;;;;;;5045332;28;19905;-81
2022/08/23 11:51:57;;;;;;;;;;;;;;;;;;5034427;28;20719;-80
2022/08/23 11:54:22;;;;;;;;;;;;;;;;;;5030820;28;19917;-80
2022/08/23 11:56:48;;;;;;;;;;;;;;;;;;5040725;28;19927;-80
2022/08/23 11:59:13;;;;;;;;;;;;;;;;;;5041902;28;19909;-80
2022/08/23 12:01:39;;;;;;;;;;;;;;;;;;5036132;28;20371;-81
2022/08/23 12:04:10;;;;;;;;;;;;;;;;;;5038475;28;19999;-80
2022/08/23 12:06:35;;;;;;;;;;;;;;;;;;5022662;28;19916;-80
2022/08/23 12:09:00;;;;;;;;;;;;;;;;;;5039223;28;19905;-80
2022/08/23 12:11:26;;;;;;;;;;;;;;;;;;5037579;28;19912;-80
2022/08/23 12:13:51;;;;;;;;;;;;;;;;;;5035696;28;19924;-80
2022/08/23 12:16:17;;;;;;;;;;;;;;;;;;5042302;28;19909;-80
2022/08/23 12:18:42;;;;;;;;;;;;;;;;;;5037659;28;19905;-81
2022/08/23 12:21:07;;;;;;;;;;;;;;;;;;5033012;28;20019;-80
2022/08/23 12:23:33;;;;;;;;;;;;;;;;;;5035886;28;20349;-80
2022/08/23 12:25:58;;;;;;;;;;;;;;;;;;5039466;28;19913;-80
2022/08/23 12:28:26;;;;;;;;;;;;;;;;;;5031194;28;19999;-80
2022/08/23 12:30:51;;;;;;;;;;;;;;;;;;5030801;28;20040;-80
2022/08/23 12:33:16;;;;;;;;;;;;;;;;;;5044585;28;20004;-79
2022/08/23 12:35:41;;;;;;;;;;;;;;;;;;5043617;28;19988;-80
2022/08/23 12:38:06;;;;;;;;;;;;;;;;;;5037747;28;19905;-80
2022/08/23 12:40:32;;;;;;;;;;;;;;;;;;5036528;28;19905;-81
2022/08/23 12:42:57;;;;;;;;;;;;;;;;;;5038804;28;19913;-81
2022/08/23 12:45:22;;;;;;;;;;;;;;;;;;5035923;28;19909;-81
2022/08/23 12:47:47;;;;;;;;;;;;;;;;;;5042781;28;19959;-80
2022/08/23 12:50:12;;;;;;;;;;;;;;;;;;5042554;28;19908;-80
2022/08/23 12:52:37;;;;;;;;;;;;;;;;;;5036084;28;19966;-80
2022/08/23 12:55:03;;;;;;;;;;;;;;;;;;5030320;28;19905;-80
2022/08/23 12:57:28;;;;;;;;;;;;;;;;;;5034009;28;19925;-80
2022/08/23 12:59:53;;;;;;;;;;;;;;;;;;5034111;28;19917;-81
2022/08/23 13:02:18;;;;;;;;;;;;;;;;;;5032755;28;19942;-80
2022/08/23 13:04:44;;;;;;;;;;;;;;;;;;5030666;28;19909;-81
2022/08/23 13:07:09;;;;;;;;;;;;;;;;;;5030760;28;19913;-80
2022/08/23 13:09:34;;;;;;;;;;;;;;;;;;5029989;28;20289;-81
2022/08/23 13:11:59;;;;;;;;;;;;;;;;;;5030912;28;20296;-81
2022/08/23 13:14:24;;;;;;;;;;;;;;;;;;5030942;28;20395;-81
2022/08/23 13:16:49;;;;;;;;;;;;;;;;;;5031887;28;20341;-81
2022/08/23 13:19:15;;;;;;;;;;;;;;;;;;5036943;28;19948;-81
2022/08/23 13:21:40;;;;;;;;;;;;;;;;;;5037995;28;19904;-81
2022/08/23 13:24:05;;;;;;;;;;;;;;;;;;5032319;28;19917;-81
2022/08/23 13:26:30;;;;;;;;;;;;;;;;;;5044396;28;19935;-81
2022/08/23 13:28:55;;;;;;;;;;;;;;;;;;5040408;28;19913;-81
2022/08/23 13:31:20;;;;;;;;;;;;;;;;;;5038580;28;19916;-80
2022/08/23 13:33:45;;;;;;;;;;;;;;;;;;5030369;28;20315;-81
2022/08/23 13:36:11;;;;;;;;;;;;;;;;;;5044025;28;19912;-81
2022/08/23 13:38:36;;;;;;;;;;;;;;;;;;5031176;28;19913;-81
2022/08/23 13:41:01;;;;;;;;;;;;;;;;;;5034795;28;19913;-81
2022/08/23 13:43:26;;;;;;;;;;;;;;;;;;5034408;28;19978;-81
2022/08/23 13:45:52;;;;;;;;;;;;;;;;;;5047445;28;19912;-81
2022/08/23 13:48:17;;;;;;;;;;;;;;;;;;5040876;28;20407;-81
2022/08/23 13:50:42;;;;;;;;;;;;;;;;;;5045011;28;19967;-80
2022/08/23 13:53:07;;;;;;;;;;;;;;;;;;5039012;28;19983;-81
2022/08/23 13:55:32;;;;;;;;;;;;;;;;;;5045606;28;19911;-81
2022/08/23 13:57:57;;;;;;;;;;;;;;;;;;5045370;28;19916;-80
2022/08/23 14:00:24;;;;;;;;;;;;;;;;;;5048527;28;19915;-81
2022/08/23 14:02:49;;;;;;;;;;;;;;;;;;5040602;28;19991;-81
2022/08/23 14:05:14;;;;;;;;;;;;;;;;;;5046929;28;20408;-81
2022/08/23 14:07:39;;;;;;;;;;;;;;;;;;5045732;28;19909;-81
2022/08/23 14:10:05;;;;;;;;;;;;;;;;;;5042491;28;19909;-81
2022/08/23 14:12:30;;;;;;;;;;;;;;;;;;5039660;28;19909;-81
2022/08/23 14:14:55;;;;;;;;;;;;;;;;;;5039853;28;19909;-81
2022/08/23 14:17:20;;;;;;;;;;;;;;;;;;5034760;28;20304;-81
2022/08/23 14:19:45;;;;;;;;;;;;;;;;;;5039595;28;19909;-81
2022/08/23 14:22:11;;;;;;;;;;;;;;;;;;5040354;28;20043;-81
2022/08/23 14:24:37;;;;;;;;;;;;;;;;;;5034669;28;19963;-81
2022/08/23 14:27:02;;;;;;;;;;;;;;;;;;5041448;28;19924;-80
2022/08/23 14:29:27;;;;;;;;;;;;;;;;;;5034707;28;20015;-81
2022/08/23 14:31:52;;;;;;;;;;;;;;;;;;5038254;28;19913;-81
2022/08/23 14:34:17;;;;;;;;;;;;;;;;;;5048786;28;20383;-81
2022/08/23 14:36:42;;;;;;;;;;;;;;;;;;5047593;28;20001;-80
2022/08/23 14:39:08;;;;;;;;;;;;;;;;;;5043452;28;19920;-81
2022/08/23 14:41:33;;;;;;;;;;;;;;;;;;5045898;28;19915;-81
2022/08/23 14:43:58;;;;;;;;;;;;;;;;;;5042347;28;19956;-81
2022/08/23 14:46:23;;;;;;;;;;;;;;;;;;5039464;28;19999;-81
2022/08/23 14:48:49;;;;;;;;;;;;;;;;;;5054548;28;19987;-81
2022/08/23 14:51:14;;;;;;;;;;;;;;;;;;5045084;28;19978;-80
2022/08/23 14:53:39;;;;;;;;;;;;;;;;;;5044551;28;20387;-82
2022/08/23 14:56:04;;;;;;;;;;;;;;;;;;5042941;28;20067;-81
2022/08/23 14:58:29;;;;;;;;;;;;;;;;;;5048100;28;19920;-80
2022/08/23 15:00:54;;;;;;;;;;;;;;;;;;5046260;28;19909;-81
2022/08/23 15:03:19;;;;;;;;;;;;;;;;;;5041765;28;19959;-82
2022/08/23 15:05:44;;;;;;;;;;;;;;;;;;5040276;28;19909;-81
2022/08/23 15:08:10;;;;;;;;;;;;;;;;;;5040323;28;19909;-81
2022/08/23 15:10:35;;;;;;;;;;;;;;;;;;5040999;28;19904;-81
2022/08/23 15:13:00;;;;;;;;;;;;;;;;;;5045212;28;19924;-81
2022/08/23 15:15:25;;;;;;;;;;;;;;;;;;5040520;28;20288;-81
2022/08/23 15:17:51;;;;;;;;;;;;;;;;;;5041804;28;19909;-81
2022/08/23 15:20:17;;;;;;;;;;;;;;;;;;5039389;28;19915;-81
2022/08/23 15:22:42;;;;;;;;;;;;;;;;;;5045753;28;19924;-81
2022/08/23 15:25:08;;;;;;;;;;;;;;;;;;5054526;28;19927;-81
2022/08/23 15:27:33;;;;;;;;;;;;;;;;;;5047997;28;19909;-81
2022/08/23 15:29:59;;;;;;;;;;;;;;;;;;5046347;28;19991;-81
2022/08/23 15:32:24;;;;;;;;;;;;;;;;;;5040373;28;19963;-81
2022/08/23 15:34:49;;;;;;;;;;;;;;;;;;5042680;28;19908;-80
2022/08/23 15:37:14;;;;;;;;;;;;;;;;;;5049850;28;20364;-81
2022/08/23 15:39:39;;;;;;;;;;;;;;;;;;5046217;28;19916;-81
2022/08/23 15:42:05;;;;;;;;;;;;;;;;;;5045366;28;19916;-82
2022/08/23 15:44:30;;;;;;;;;;;;;;;;;;5047273;28;19916;-81
2022/08/23 15:46:55;;;;;;;;;;;;;;;;;;5048964;28;20368;-81
2022/08/23 15:49:21;;;;;;;;;;;;;;;;;;5043739;28;19913;-81
2022/08/23 15:51:46;;;;;;;;;;;;;;;;;;5036573;28;20258;-82
2022/08/23 15:54:11;;;;;;;;;;;;;;;;;;5044915;28;20279;-82
2022/08/23 15:56:36;;;;;;;;;;;;;;;;;;5043259;28;19905;-82
2022/08/23 15:59:01;;;;;;;;;;;;;;;;;;5043893;28;20047;-82
2022/08/23 16:01:32;;;;;;;;;;;;;;;;;;5040415;28;19920;-81
2022/08/23 16:03:57;;;;;;;;;;;;;;;;;;5038207;28;19964;-81
2022/08/23 16:06:22;;;;;;;;;;;;;;;;;;5046288;28;19909;-82
2022/08/23 16:08:47;;;;;;;;;;;;;;;;;;5044864;28;19905;-82
2022/08/23 16:11:12;;;;;;;;;;;;;;;;;;5048791;28;19904;-81
2022/08/23 16:13:39;;;;;;;;;;;;;;;;;;5035954;28;19924;-81
2022/08/23 16:16:04;;;;;;;;;;;;;;;;;;5039180;28;20011;-81
2022/08/23 16:18:29;;;;;;;;;;;;;;;;;;5037796;28;20393;-82
2022/08/23 16:20:55;;;;;;;;;;;;;;;;;;5042398;28;19909;-81
2022/08/23 16:23:20;;;;;;;;;;;;;;;;;;5042291;28;20380;-82
2022/08/23 16:25:45;;;;;;;;;;;;;;;;;;5042618;28;19909;-81
2022/08/23 16:28:10;;;;;;;;;;;;;;;;;;5039999;28;20042;-82
2022/08/23 16:30:35;;;;;;;;;;;;;;;;;;5043747;28;20272;-82
2022/08/23 16:33:00;;;;;;;;;;;;;;;;;;5041631;28;20303;-82
2022/08/23 16:35:26;;;;;;;;;;;;;;;;;;5045855;28;19920;-81
2022/08/23 16:37:53;;;;;;;;;;;;;;;;;;5042839;28;20003;-81
2022/08/23 16:40:18;;;;;;;;;;;;;;;;;;5045754;28;19948;-81